sensor_id;sensor_type;location;lat;lon;timestamp;temperature;humidity
26621;DHT22;14253;44.840;10.444;2023-01-19T00:00:24;3.90;1.00
26621;DHT22;14253;44.840;10.444;2023-01-19T00:02:50;3.80;1.00
26621;DHT22;14253;44.840;10.444;2023-01-19T00:05:16;3.80;1.00
26621;DHT22;14253;44.840;10.444;2023-01-19T00:07:42;3.80;1.00
26621;DHT22;14253;44.840;10.444;2023-01-19T00:10:09;3.80;1.00
26621;DHT22;14253;44.840;10.444;2023-01-19T00:12:35;3.80;1.00
26621;DHT22;14253;44.840;10.444;2023-01-19T00:15:01;3.80;1.00
26621;DHT22;14253;44.840;10.444;2023-01-19T00:17:27;3.80;1.00
26621;DHT22;14253;44.840;10.444;2023-01-19T00:19:53;3.80;1.00
26621;DHT22;14253;44.840;10.444;2023-01-19T00:22:19;3.80;1.00
26621;DHT22;14253;44.840;10.444;2023-01-19T00:24:44;3.80;1.00
26621;DHT22;14253;44.840;10.444;2023-01-19T00:27:10;3.80;1.00
26621;DHT22;14253;44.840;10.444;2023-01-19T00:29:36;3.80;1.00
26621;DHT22;14253;44.840;10.444;2023-01-19T00:32:04;3.80;1.00
26621;DHT22;14253;44.840;10.444;2023-01-19T00:34:30;3.80;1.00
26621;DHT22;14253;44.840;10.444;2023-01-19T00:37:10;3.80;1.00
26621;DHT22;14253;44.840;10.444;2023-01-19T00:39:36;3.80;1.00
26621;DHT22;14253;44.840;10.444;2023-01-19T00:42:03;3.80;1.00
26621;DHT22;14253;44.840;10.444;2023-01-19T00:44:47;3.80;1.00
26621;DHT22;14253;44.840;10.444;2023-01-19T00:47:13;3.80;1.00
26621;DHT22;14253;44.840;10.444;2023-01-19T00:49:39;3.80;1.00
26621;DHT22;14253;44.840;10.444;2023-01-19T00:52:05;3.80;1.00
26621;DHT22;14253;44.840;10.444;2023-01-19T00:54:31;3.80;1.00
26621;DHT22;14253;44.840;10.444;2023-01-19T00:56:57;3.70;1.00
26621;DHT22;14253;44.840;10.444;2023-01-19T00:59:23;3.70;1.00
26621;DHT22;14253;44.840;10.444;2023-01-19T01:01:50;3.70;1.00
26621;DHT22;14253;44.840;10.444;2023-01-19T01:04:16;3.70;1.00
26621;DHT22;14253;44.840;10.444;2023-01-19T01:06:42;3.70;1.00
26621;DHT22;14253;44.840;10.444;2023-01-19T01:09:08;3.60;1.00
26621;DHT22;14253;44.840;10.444;2023-01-19T01:11:38;3.70;1.00
26621;DHT22;14253;44.840;10.444;2023-01-19T01:14:05;3.70;1.00
26621;DHT22;14253;44.840;10.444;2023-01-19T01:16:31;3.70;1.00
26621;DHT22;14253;44.840;10.444;2023-01-19T01:18:57;3.70;1.00
26621;DHT22;14253;44.840;10.444;2023-01-19T01:21:23;3.60;1.00
26621;DHT22;14253;44.840;10.444;2023-01-19T01:23:49;3.60;1.00
26621;DHT22;14253;44.840;10.444;2023-01-19T01:26:15;3.60;1.00
26621;DHT22;14253;44.840;10.444;2023-01-19T01:28:41;3.60;1.00
26621;DHT22;14253;44.840;10.444;2023-01-19T01:31:07;3.60;1.00
26621;DHT22;14253;44.840;10.444;2023-01-19T01:33:33;3.60;1.00
26621;DHT22;14253;44.840;10.444;2023-01-19T01:35:59;3.70;1.00
26621;DHT22;14253;44.840;10.444;2023-01-19T01:38:24;3.70;1.00
26621;DHT22;14253;44.840;10.444;2023-01-19T01:40:50;3.70;1.00
26621;DHT22;14253;44.840;10.444;2023-01-19T01:43:18;3.60;1.00
26621;DHT22;14253;44.840;10.444;2023-01-19T01:45:46;3.70;1.00
26621;DHT22;14253;44.840;10.444;2023-01-19T01:48:24;3.60;1.00
26621;DHT22;14253;44.840;10.444;2023-01-19T01:51:04;3.60;1.00
26621;DHT22;14253;44.840;10.444;2023-01-19T01:54:16;3.60;1.00
26621;DHT22;14253;44.840;10.444;2023-01-19T01:56:46;3.60;1.00
26621;DHT22;14253;44.840;10.444;2023-01-19T01:59:23;3.70;1.00
26621;DHT22;14253;44.840;10.444;2023-01-19T02:01:55;3.60;1.00
26621;DHT22;14253;44.840;10.444;2023-01-19T02:04:45;3.70;1.00
26621;DHT22;14253;44.840;10.444;2023-01-19T02:07:16;3.70;1.00
26621;DHT22;14253;44.840;10.444;2023-01-19T02:10:03;3.70;1.00
26621;DHT22;14253;44.840;10.444;2023-01-19T02:12:48;3.60;1.00
26621;DHT22;14253;44.840;10.444;2023-01-19T02:15:32;3.70;1.00
26621;DHT22;14253;44.840;10.444;2023-01-19T02:17:58;3.70;1.00
26621;DHT22;14253;44.840;10.444;2023-01-19T02:20:27;3.70;1.00
26621;DHT22;14253;44.840;10.444;2023-01-19T02:22:55;3.70;1.00
26621;DHT22;14253;44.840;10.444;2023-01-19T02:25:24;3.70;1.00
26621;DHT22;14253;44.840;10.444;2023-01-19T02:27:51;3.70;1.00
26621;DHT22;14253;44.840;10.444;2023-01-19T02:30:17;3.80;1.00
26621;DHT22;14253;44.840;10.444;2023-01-19T02:32:43;3.70;1.00
26621;DHT22;14253;44.840;10.444;2023-01-19T02:35:10;3.80;1.00
26621;DHT22;14253;44.840;10.444;2023-01-19T02:37:38;3.70;1.00
26621;DHT22;14253;44.840;10.444;2023-01-19T02:40:10;3.70;1.00
26621;DHT22;14253;44.840;10.444;2023-01-19T02:42:42;3.80;1.00
26621;DHT22;14253;44.840;10.444;2023-01-19T02:45:11;3.80;1.00
26621;DHT22;14253;44.840;10.444;2023-01-19T02:47:42;3.80;1.00
26621;DHT22;14253;44.840;10.444;2023-01-19T02:53:04;3.80;1.00
26621;DHT22;14253;44.840;10.444;2023-01-19T02:55:35;3.80;1.00
26621;DHT22;14253;44.840;10.444;2023-01-19T02:58:10;3.80;1.00
26621;DHT22;14253;44.840;10.444;2023-01-19T03:01:02;3.80;1.00
26621;DHT22;14253;44.840;10.444;2023-01-19T03:09:27;3.70;1.00
26621;DHT22;14253;44.840;10.444;2023-01-19T03:12:08;3.70;1.00
26621;DHT22;14253;44.840;10.444;2023-01-19T03:14:38;3.60;1.00
26621;DHT22;14253;44.840;10.444;2023-01-19T03:17:08;3.60;1.00
26621;DHT22;14253;44.840;10.444;2023-01-19T03:19:38;3.60;1.00
26621;DHT22;14253;44.840;10.444;2023-01-19T03:22:16;3.60;1.00
26621;DHT22;14253;44.840;10.444;2023-01-19T03:24:45;3.60;1.00
26621;DHT22;14253;44.840;10.444;2023-01-19T03:27:34;3.60;1.00
26621;DHT22;14253;44.840;10.444;2023-01-19T03:30:16;3.60;1.00
26621;DHT22;14253;44.840;10.444;2023-01-19T03:32:50;3.60;1.00
26621;DHT22;14253;44.840;10.444;2023-01-19T03:35:19;3.50;1.00
26621;DHT22;14253;44.840;10.444;2023-01-19T03:37:47;3.50;1.00
26621;DHT22;14253;44.840;10.444;2023-01-19T03:40:16;3.50;1.00
26621;DHT22;14253;44.840;10.444;2023-01-19T03:42:43;3.50;1.00
26621;DHT22;14253;44.840;10.444;2023-01-19T03:45:11;3.40;1.00
26621;DHT22;14253;44.840;10.444;2023-01-19T03:47:38;3.40;1.00
26621;DHT22;14253;44.840;10.444;2023-01-19T03:50:08;3.40;1.00
26621;DHT22;14253;44.840;10.444;2023-01-19T03:52:36;3.40;1.00
26621;DHT22;14253;44.840;10.444;2023-01-19T03:55:03;3.30;1.00
26621;DHT22;14253;44.840;10.444;2023-01-19T03:57:30;3.30;1.00
26621;DHT22;14253;44.840;10.444;2023-01-19T03:59:57;3.30;1.00
26621;DHT22;14253;44.840;10.444;2023-01-19T04:02:23;3.20;1.00
26621;DHT22;14253;44.840;10.444;2023-01-19T04:04:49;3.30;1.00
26621;DHT22;14253;44.840;10.444;2023-01-19T04:07:15;3.30;1.00
26621;DHT22;14253;44.840;10.444;2023-01-19T04:09:41;3.20;1.00
26621;DHT22;14253;44.840;10.444;2023-01-19T04:12:08;3.20;1.00
26621;DHT22;14253;44.840;10.444;2023-01-19T04:14:34;3.20;1.00
26621;DHT22;14253;44.840;10.444;2023-01-19T04:16:59;3.20;1.00
26621;DHT22;14253;44.840;10.444;2023-01-19T04:19:25;3.20;1.00
26621;DHT22;14253;44.840;10.444;2023-01-19T04:21:51;3.20;1.00
26621;DHT22;14253;44.840;10.444;2023-01-19T04:24:17;3.20;1.00
26621;DHT22;14253;44.840;10.444;2023-01-19T04:26:46;3.20;1.00
26621;DHT22;14253;44.840;10.444;2023-01-19T04:29:12;3.10;1.00
26621;DHT22;14253;44.840;10.444;2023-01-19T04:31:38;3.10;1.00
26621;DHT22;14253;44.840;10.444;2023-01-19T04:34:04;3.00;1.00
26621;DHT22;14253;44.840;10.444;2023-01-19T04:36:30;3.00;1.00
26621;DHT22;14253;44.840;10.444;2023-01-19T04:38:56;3.00;1.00
26621;DHT22;14253;44.840;10.444;2023-01-19T04:41:22;2.90;1.00
26621;DHT22;14253;44.840;10.444;2023-01-19T04:43:48;2.80;1.00
26621;DHT22;14253;44.840;10.444;2023-01-19T04:46:14;2.80;1.00
26621;DHT22;14253;44.840;10.444;2023-01-19T04:48:40;2.70;1.00
26621;DHT22;14253;44.840;10.444;2023-01-19T04:51:06;2.70;1.00
26621;DHT22;14253;44.840;10.444;2023-01-19T04:53:31;2.70;1.00
26621;DHT22;14253;44.840;10.444;2023-01-19T04:55:57;2.70;1.00
26621;DHT22;14253;44.840;10.444;2023-01-19T04:58:25;2.70;1.00
26621;DHT22;14253;44.840;10.444;2023-01-19T05:00:51;2.50;1.00
26621;DHT22;14253;44.840;10.444;2023-01-19T05:03:18;2.50;1.00
26621;DHT22;14253;44.840;10.444;2023-01-19T05:05:44;2.40;1.00
26621;DHT22;14253;44.840;10.444;2023-01-19T05:08:11;2.30;1.00
26621;DHT22;14253;44.840;10.444;2023-01-19T05:10:37;2.30;1.00
26621;DHT22;14253;44.840;10.444;2023-01-19T05:13:03;2.20;1.00
26621;DHT22;14253;44.840;10.444;2023-01-19T05:15:30;2.20;1.00
26621;DHT22;14253;44.840;10.444;2023-01-19T05:17:56;2.20;1.00
26621;DHT22;14253;44.840;10.444;2023-01-19T05:20:23;2.20;1.00
26621;DHT22;14253;44.840;10.444;2023-01-19T05:22:52;2.10;1.00
26621;DHT22;14253;44.840;10.444;2023-01-19T05:25:18;2.10;1.00
26621;DHT22;14253;44.840;10.444;2023-01-19T05:27:44;2.10;1.00
26621;DHT22;14253;44.840;10.444;2023-01-19T05:30:11;2.10;1.00
26621;DHT22;14253;44.840;10.444;2023-01-19T05:32:38;2.10;1.00
26621;DHT22;14253;44.840;10.444;2023-01-19T05:35:04;2.10;1.00
26621;DHT22;14253;44.840;10.444;2023-01-19T05:37:30;2.20;1.00
26621;DHT22;14253;44.840;10.444;2023-01-19T05:39:57;2.20;1.00
26621;DHT22;14253;44.840;10.444;2023-01-19T05:42:23;2.10;1.00
26621;DHT22;14253;44.840;10.444;2023-01-19T05:44:49;2.10;1.00
26621;DHT22;14253;44.840;10.444;2023-01-19T05:47:15;2.10;1.00
26621;DHT22;14253;44.840;10.444;2023-01-19T05:49:41;2.10;1.00
26621;DHT22;14253;44.840;10.444;2023-01-19T05:52:07;2.10;1.00
26621;DHT22;14253;44.840;10.444;2023-01-19T05:54:33;2.20;1.00
26621;DHT22;14253;44.840;10.444;2023-01-19T05:56:59;2.20;1.00
26621;DHT22;14253;44.840;10.444;2023-01-19T05:59:25;2.20;1.00
26621;DHT22;14253;44.840;10.444;2023-01-19T06:01:51;2.10;1.00
26621;DHT22;14253;44.840;10.444;2023-01-19T06:04:18;2.10;1.00
26621;DHT22;14253;44.840;10.444;2023-01-19T06:06:47;2.10;1.00
26621;DHT22;14253;44.840;10.444;2023-01-19T06:09:13;2.10;1.00
26621;DHT22;14253;44.840;10.444;2023-01-19T06:11:39;2.10;1.00
26621;DHT22;14253;44.840;10.444;2023-01-19T06:14:05;2.10;1.00
26621;DHT22;14253;44.840;10.444;2023-01-19T06:16:31;2.10;1.00
26621;DHT22;14253;44.840;10.444;2023-01-19T06:18:57;2.10;1.00
26621;DHT22;14253;44.840;10.444;2023-01-19T06:21:23;2.10;1.00
26621;DHT22;14253;44.840;10.444;2023-01-19T06:23:49;2.10;1.00
26621;DHT22;14253;44.840;10.444;2023-01-19T06:26:15;2.20;1.00
26621;DHT22;14253;44.840;10.444;2023-01-19T06:28:41;2.20;1.00
26621;DHT22;14253;44.840;10.444;2023-01-19T06:31:07;2.10;1.00
26621;DHT22;14253;44.840;10.444;2023-01-19T06:33:33;2.20;1.00
26621;DHT22;14253;44.840;10.444;2023-01-19T06:35:59;2.20;1.00
26621;DHT22;14253;44.840;10.444;2023-01-19T06:38:25;2.20;1.00
26621;DHT22;14253;44.840;10.444;2023-01-19T06:40:55;2.20;1.00
26621;DHT22;14253;44.840;10.444;2023-01-19T06:43:23;2.20;1.00
26621;DHT22;14253;44.840;10.444;2023-01-19T06:45:50;2.20;1.00
26621;DHT22;14253;44.840;10.444;2023-01-19T06:48:16;2.20;1.00
26621;DHT22;14253;44.840;10.444;2023-01-19T06:50:46;2.20;1.00
26621;DHT22;14253;44.840;10.444;2023-01-19T06:53:13;2.20;1.00
26621;DHT22;14253;44.840;10.444;2023-01-19T06:55:44;2.30;1.00
26621;DHT22;14253;44.840;10.444;2023-01-19T06:58:10;2.20;1.00
26621;DHT22;14253;44.840;10.444;2023-01-19T07:00:37;2.20;1.00
26621;DHT22;14253;44.840;10.444;2023-01-19T07:03:06;2.20;1.00
26621;DHT22;14253;44.840;10.444;2023-01-19T07:05:33;2.20;1.00
26621;DHT22;14253;44.840;10.444;2023-01-19T07:07:59;2.20;1.00
26621;DHT22;14253;44.840;10.444;2023-01-19T07:10:25;2.20;1.00
26621;DHT22;14253;44.840;10.444;2023-01-19T07:12:51;2.20;1.00
26621;DHT22;14253;44.840;10.444;2023-01-19T07:15:18;2.20;1.00
26621;DHT22;14253;44.840;10.444;2023-01-19T07:17:47;2.20;1.00
26621;DHT22;14253;44.840;10.444;2023-01-19T07:20:13;2.20;1.00
26621;DHT22;14253;44.840;10.444;2023-01-19T07:22:40;2.30;1.00
26621;DHT22;14253;44.840;10.444;2023-01-19T07:25:08;2.20;1.00
26621;DHT22;14253;44.840;10.444;2023-01-19T07:27:34;2.30;1.00
26621;DHT22;14253;44.840;10.444;2023-01-19T07:30:00;2.20;1.00
26621;DHT22;14253;44.840;10.444;2023-01-19T07:32:27;2.30;1.00
26621;DHT22;14253;44.840;10.444;2023-01-19T07:34:53;2.30;1.00
26621;DHT22;14253;44.840;10.444;2023-01-19T07:37:19;2.30;1.00
26621;DHT22;14253;44.840;10.444;2023-01-19T07:39:45;2.40;1.00
26621;DHT22;14253;44.840;10.444;2023-01-19T07:42:11;2.40;1.00
26621;DHT22;14253;44.840;10.444;2023-01-19T07:44:37;2.40;1.00
26621;DHT22;14253;44.840;10.444;2023-01-19T07:47:03;2.40;1.00
26621;DHT22;14253;44.840;10.444;2023-01-19T07:49:32;2.30;1.00
26621;DHT22;14253;44.840;10.444;2023-01-19T07:51:58;2.40;1.00
26621;DHT22;14253;44.840;10.444;2023-01-19T07:54:24;2.40;1.00
26621;DHT22;14253;44.840;10.444;2023-01-19T07:56:52;2.40;1.00
26621;DHT22;14253;44.840;10.444;2023-01-19T07:59:19;2.40;1.00
26621;DHT22;14253;44.840;10.444;2023-01-19T08:01:45;2.40;1.00
26621;DHT22;14253;44.840;10.444;2023-01-19T08:04:11;2.40;1.00
26621;DHT22;14253;44.840;10.444;2023-01-19T08:06:38;2.40;1.00
26621;DHT22;14253;44.840;10.444;2023-01-19T08:09:06;2.40;1.00
26621;DHT22;14253;44.840;10.444;2023-01-19T08:11:33;2.50;1.00
26621;DHT22;14253;44.840;10.444;2023-01-19T08:13:59;2.50;1.00
26621;DHT22;14253;44.840;10.444;2023-01-19T08:16:25;2.50;1.00
26621;DHT22;14253;44.840;10.444;2023-01-19T08:18:52;2.50;1.00
26621;DHT22;14253;44.840;10.444;2023-01-19T08:21:18;2.50;1.00
26621;DHT22;14253;44.840;10.444;2023-01-19T08:23:54;2.60;1.00
26621;DHT22;14253;44.840;10.444;2023-01-19T08:26:32;2.60;1.00
26621;DHT22;14253;44.840;10.444;2023-01-19T08:29:01;2.70;1.00
26621;DHT22;14253;44.840;10.444;2023-01-19T08:31:27;2.70;1.00
26621;DHT22;14253;44.840;10.444;2023-01-19T08:33:53;2.70;1.00
26621;DHT22;14253;44.840;10.444;2023-01-19T08:36:20;2.80;1.00
26621;DHT22;14253;44.840;10.444;2023-01-19T08:38:47;2.80;1.00
26621;DHT22;14253;44.840;10.444;2023-01-19T08:41:13;2.90;1.00
26621;DHT22;14253;44.840;10.444;2023-01-19T08:43:41;2.90;1.00
26621;DHT22;14253;44.840;10.444;2023-01-19T08:46:08;3.00;1.00
26621;DHT22;14253;44.840;10.444;2023-01-19T08:48:34;3.00;1.00
26621;DHT22;14253;44.840;10.444;2023-01-19T08:51:00;3.00;1.00
26621;DHT22;14253;44.840;10.444;2023-01-19T08:53:27;2.90;1.00
26621;DHT22;14253;44.840;10.444;2023-01-19T08:55:57;2.90;1.00
26621;DHT22;14253;44.840;10.444;2023-01-19T08:58:26;2.90;1.00
26621;DHT22;14253;44.840;10.444;2023-01-19T09:00:52;2.90;1.00
26621;DHT22;14253;44.840;10.444;2023-01-19T09:03:18;2.90;1.00
26621;DHT22;14253;44.840;10.444;2023-01-19T09:05:46;2.90;1.00
26621;DHT22;14253;44.840;10.444;2023-01-19T09:08:13;3.00;1.00
26621;DHT22;14253;44.840;10.444;2023-01-19T09:10:44;3.00;1.00
26621;DHT22;14253;44.840;10.444;2023-01-19T09:13:11;3.00;1.00
26621;DHT22;14253;44.840;10.444;2023-01-19T09:15:38;3.00;1.00
26621;DHT22;14253;44.840;10.444;2023-01-19T09:18:06;3.00;1.00
26621;DHT22;14253;44.840;10.444;2023-01-19T09:20:35;3.00;1.00
26621;DHT22;14253;44.840;10.444;2023-01-19T09:23:03;3.00;1.00
26621;DHT22;14253;44.840;10.444;2023-01-19T09:25:30;3.00;1.00
26621;DHT22;14253;44.840;10.444;2023-01-19T09:28:00;3.00;1.00
26621;DHT22;14253;44.840;10.444;2023-01-19T09:30:27;3.10;1.00
26621;DHT22;14253;44.840;10.444;2023-01-19T09:32:53;3.10;1.00
26621;DHT22;14253;44.840;10.444;2023-01-19T09:35:19;3.00;1.00
26621;DHT22;14253;44.840;10.444;2023-01-19T09:37:46;3.10;1.00
26621;DHT22;14253;44.840;10.444;2023-01-19T09:40:14;3.00;1.00
26621;DHT22;14253;44.840;10.444;2023-01-19T09:42:43;3.10;1.00
26621;DHT22;14253;44.840;10.444;2023-01-19T09:45:37;3.10;1.00
26621;DHT22;14253;44.840;10.444;2023-01-19T09:48:14;3.20;1.00
26621;DHT22;14253;44.840;10.444;2023-01-19T09:50:45;3.20;1.00
26621;DHT22;14253;44.840;10.444;2023-01-19T09:53:19;3.20;1.00
26621;DHT22;14253;44.840;10.444;2023-01-19T09:55:46;3.20;1.00
26621;DHT22;14253;44.840;10.444;2023-01-19T09:58:16;3.20;1.00
26621;DHT22;14253;44.840;10.444;2023-01-19T10:01:01;3.10;1.00
26621;DHT22;14253;44.840;10.444;2023-01-19T10:03:32;3.10;1.00
26621;DHT22;14253;44.840;10.444;2023-01-19T10:06:03;3.10;1.00
26621;DHT22;14253;44.840;10.444;2023-01-19T10:08:51;3.00;1.00
26621;DHT22;14253;44.840;10.444;2023-01-19T10:11:45;3.10;1.00
26621;DHT22;14253;44.840;10.444;2023-01-19T10:14:44;3.10;1.00
26621;DHT22;14253;44.840;10.444;2023-01-19T10:17:45;3.00;1.00
26621;DHT22;14253;44.840;10.444;2023-01-19T10:20:34;3.10;1.00
26621;DHT22;14253;44.840;10.444;2023-01-19T10:23:03;3.00;1.00
26621;DHT22;14253;44.840;10.444;2023-01-19T10:25:31;3.00;1.00
26621;DHT22;14253;44.840;10.444;2023-01-19T10:27:59;3.00;1.00
26621;DHT22;14253;44.840;10.444;2023-01-19T10:30:28;3.00;1.00
26621;DHT22;14253;44.840;10.444;2023-01-19T10:32:54;3.10;1.00
26621;DHT22;14253;44.840;10.444;2023-01-19T10:35:22;3.00;1.00
26621;DHT22;14253;44.840;10.444;2023-01-19T10:37:59;3.00;1.00
26621;DHT22;14253;44.840;10.444;2023-01-19T10:40:50;2.90;1.00
26621;DHT22;14253;44.840;10.444;2023-01-19T10:43:48;2.90;1.00
26621;DHT22;14253;44.840;10.444;2023-01-19T10:46:48;2.90;1.00
26621;DHT22;14253;44.840;10.444;2023-01-19T10:49:36;2.90;1.00
26621;DHT22;14253;44.840;10.444;2023-01-19T10:55:06;2.90;1.00
26621;DHT22;14253;44.840;10.444;2023-01-19T10:58:00;3.00;1.00
26621;DHT22;14253;44.840;10.444;2023-01-19T11:00:52;3.00;1.00
26621;DHT22;14253;44.840;10.444;2023-01-19T11:06:31;3.10;1.00
26621;DHT22;14253;44.840;10.444;2023-01-19T11:09:26;3.10;1.00
26621;DHT22;14253;44.840;10.444;2023-01-19T11:12:24;3.10;1.00
26621;DHT22;14253;44.840;10.444;2023-01-19T11:15:20;3.10;1.00
26621;DHT22;14253;44.840;10.444;2023-01-19T11:18:06;3.20;1.00
26621;DHT22;14253;44.840;10.444;2023-01-19T11:20:59;3.20;1.00
26621;DHT22;14253;44.840;10.444;2023-01-19T11:23:49;3.20;1.00
26621;DHT22;14253;44.840;10.444;2023-01-19T11:26:55;3.10;1.00
26621;DHT22;14253;44.840;10.444;2023-01-19T11:29:38;3.10;1.00
26621;DHT22;14253;44.840;10.444;2023-01-19T11:32:33;3.10;1.00
26621;DHT22;14253;44.840;10.444;2023-01-19T11:35:46;3.10;1.00
26621;DHT22;14253;44.840;10.444;2023-01-19T11:38:27;3.20;1.00
26621;DHT22;14253;44.840;10.444;2023-01-19T11:41:24;3.10;1.00
26621;DHT22;14253;44.840;10.444;2023-01-19T11:44:29;3.10;1.00
26621;DHT22;14253;44.840;10.444;2023-01-19T11:47:44;3.00;1.00
26621;DHT22;14253;44.840;10.444;2023-01-19T11:50:28;2.90;1.00
26621;DHT22;14253;44.840;10.444;2023-01-19T11:53:32;2.90;1.00
26621;DHT22;14253;44.840;10.444;2023-01-19T11:56:02;2.90;1.00
26621;DHT22;14253;44.840;10.444;2023-01-19T11:58:37;2.90;1.00
26621;DHT22;14253;44.840;10.444;2023-01-19T12:01:20;2.80;1.00
26621;DHT22;14253;44.840;10.444;2023-01-19T12:04:00;2.80;1.00
26621;DHT22;14253;44.840;10.444;2023-01-19T12:06:30;2.90;1.00
26621;DHT22;14253;44.840;10.444;2023-01-19T12:09:06;3.00;1.00
26621;DHT22;14253;44.840;10.444;2023-01-19T12:11:45;3.10;1.00
26621;DHT22;14253;44.840;10.444;2023-01-19T12:14:20;3.10;1.00
26621;DHT22;14253;44.840;10.444;2023-01-19T12:16:50;3.20;1.00
26621;DHT22;14253;44.840;10.444;2023-01-19T12:19:42;3.30;1.00
26621;DHT22;14253;44.840;10.444;2023-01-19T12:22:16;3.20;1.00
26621;DHT22;14253;44.840;10.444;2023-01-19T12:24:53;3.20;1.00
26621;DHT22;14253;44.840;10.444;2023-01-19T12:27:36;3.20;1.00
26621;DHT22;14253;44.840;10.444;2023-01-19T12:30:02;3.20;1.00
26621;DHT22;14253;44.840;10.444;2023-01-19T12:32:32;3.20;1.00
26621;DHT22;14253;44.840;10.444;2023-01-19T12:34:59;3.20;1.00
26621;DHT22;14253;44.840;10.444;2023-01-19T12:39:59;3.30;1.00
26621;DHT22;14253;44.840;10.444;2023-01-19T12:42:27;3.20;1.00
26621;DHT22;14253;44.840;10.444;2023-01-19T12:45:21;3.20;1.00
26621;DHT22;14253;44.840;10.444;2023-01-19T12:47:53;3.20;1.00
26621;DHT22;14253;44.840;10.444;2023-01-19T12:50:22;3.20;1.00
26621;DHT22;14253;44.840;10.444;2023-01-19T12:52:58;3.10;1.00
26621;DHT22;14253;44.840;10.444;2023-01-19T12:55:32;3.10;1.00
26621;DHT22;14253;44.840;10.444;2023-01-19T12:58:15;3.10;1.00
26621;DHT22;14253;44.840;10.444;2023-01-19T13:00:47;3.10;1.00
26621;DHT22;14253;44.840;10.444;2023-01-19T13:06:09;3.10;1.00
26621;DHT22;14253;44.840;10.444;2023-01-19T13:08:54;3.10;1.00
26621;DHT22;14253;44.840;10.444;2023-01-19T13:11:21;3.10;1.00
26621;DHT22;14253;44.840;10.444;2023-01-19T13:18:57;3.10;1.00
26621;DHT22;14253;44.840;10.444;2023-01-19T13:21:30;3.10;1.00
26621;DHT22;14253;44.840;10.444;2023-01-19T13:23:58;3.00;1.00
26621;DHT22;14253;44.840;10.444;2023-01-19T13:26:28;3.00;1.00
26621;DHT22;14253;44.840;10.444;2023-01-19T13:31:39;3.00;1.00
26621;DHT22;14253;44.840;10.444;2023-01-19T13:34:15;3.00;1.00
26621;DHT22;14253;44.840;10.444;2023-01-19T13:36:48;3.00;1.00
26621;DHT22;14253;44.840;10.444;2023-01-19T13:42:00;3.00;1.00
26621;DHT22;14253;44.840;10.444;2023-01-19T13:44:35;2.90;1.00
26621;DHT22;14253;44.840;10.444;2023-01-19T13:47:07;2.90;1.00
26621;DHT22;14253;44.840;10.444;2023-01-19T13:49:37;2.90;1.00
26621;DHT22;14253;44.840;10.444;2023-01-19T13:54:49;2.90;1.00
26621;DHT22;14253;44.840;10.444;2023-01-19T14:02:54;2.80;1.00
26621;DHT22;14253;44.840;10.444;2023-01-19T14:05:25;2.80;1.00
26621;DHT22;14253;44.840;10.444;2023-01-19T14:13:10;2.80;1.00
26621;DHT22;14253;44.840;10.444;2023-01-19T14:15:37;2.80;1.00
26621;DHT22;14253;44.840;10.444;2023-01-19T14:26:01;2.80;1.00
26621;DHT22;14253;44.840;10.444;2023-01-19T14:28:35;2.80;1.00
26621;DHT22;14253;44.840;10.444;2023-01-19T14:31:21;2.70;1.00
26621;DHT22;14253;44.840;10.444;2023-01-19T14:33:50;2.70;1.00
26621;DHT22;14253;44.840;10.444;2023-01-19T14:38:49;2.70;1.00
26621;DHT22;14253;44.840;10.444;2023-01-19T14:41:29;2.70;1.00
26621;DHT22;14253;44.840;10.444;2023-01-19T14:43:58;2.70;1.00
26621;DHT22;14253;44.840;10.444;2023-01-19T14:46:24;2.70;1.00
26621;DHT22;14253;44.840;10.444;2023-01-19T14:48:53;2.60;1.00
26621;DHT22;14253;44.840;10.444;2023-01-19T14:51:22;2.70;1.00
26621;DHT22;14253;44.840;10.444;2023-01-19T14:53:52;2.60;1.00
26621;DHT22;14253;44.840;10.444;2023-01-19T14:56:32;2.60;1.00
26621;DHT22;14253;44.840;10.444;2023-01-19T14:59:00;2.60;1.00
26621;DHT22;14253;44.840;10.444;2023-01-19T15:01:27;2.60;1.00
26621;DHT22;14253;44.840;10.444;2023-01-19T15:03:54;2.60;1.00
26621;DHT22;14253;44.840;10.444;2023-01-19T15:06:24;2.60;1.00
26621;DHT22;14253;44.840;10.444;2023-01-19T15:09:00;2.60;1.00
26621;DHT22;14253;44.840;10.444;2023-01-19T15:11:46;2.60;1.00
26621;DHT22;14253;44.840;10.444;2023-01-19T15:14:24;2.60;1.00
26621;DHT22;14253;44.840;10.444;2023-01-19T15:17:15;2.60;1.00
26621;DHT22;14253;44.840;10.444;2023-01-19T15:20:19;2.60;1.00
26621;DHT22;14253;44.840;10.444;2023-01-19T15:22:58;2.50;1.00
26621;DHT22;14253;44.840;10.444;2023-01-19T15:25:40;2.50;1.00
26621;DHT22;14253;44.840;10.444;2023-01-19T15:28:29;2.40;1.00
26621;DHT22;14253;44.840;10.444;2023-01-19T15:31:23;2.40;1.00
26621;DHT22;14253;44.840;10.444;2023-01-19T15:34:14;2.30;1.00
26621;DHT22;14253;44.840;10.444;2023-01-19T15:36:56;2.30;1.00
26621;DHT22;14253;44.840;10.444;2023-01-19T15:39:31;2.20;1.00
26621;DHT22;14253;44.840;10.444;2023-01-19T15:42:15;2.20;1.00
26621;DHT22;14253;44.840;10.444;2023-01-19T15:44:57;2.10;1.00
26621;DHT22;14253;44.840;10.444;2023-01-19T15:47:37;2.20;1.00
26621;DHT22;14253;44.840;10.444;2023-01-19T15:50:20;2.20;1.00
26621;DHT22;14253;44.840;10.444;2023-01-19T15:53:11;2.20;1.00
26621;DHT22;14253;44.840;10.444;2023-01-19T15:55:56;2.10;1.00
26621;DHT22;14253;44.840;10.444;2023-01-19T15:58:39;2.10;1.00
26621;DHT22;14253;44.840;10.444;2023-01-19T16:01:20;2.10;1.00
26621;DHT22;14253;44.840;10.444;2023-01-19T16:04:13;2.00;1.00
26621;DHT22;14253;44.840;10.444;2023-01-19T16:06:56;2.00;1.00
26621;DHT22;14253;44.840;10.444;2023-01-19T16:10:01;2.00;1.00
26621;DHT22;14253;44.840;10.444;2023-01-19T16:12:47;1.90;1.00
26621;DHT22;14253;44.840;10.444;2023-01-19T16:15:45;1.90;1.00
26621;DHT22;14253;44.840;10.444;2023-01-19T16:18:29;2.00;1.00
26621;DHT22;14253;44.840;10.444;2023-01-19T16:21:27;2.00;1.00
26621;DHT22;14253;44.840;10.444;2023-01-19T16:24:13;1.90;1.00
26621;DHT22;14253;44.840;10.444;2023-01-19T16:26:57;1.90;1.00
26621;DHT22;14253;44.840;10.444;2023-01-19T16:29:46;1.90;1.00
26621;DHT22;14253;44.840;10.444;2023-01-19T16:32:42;1.90;1.00
26621;DHT22;14253;44.840;10.444;2023-01-19T16:35:32;1.90;1.00
26621;DHT22;14253;44.840;10.444;2023-01-19T16:38:32;1.90;1.00
26621;DHT22;14253;44.840;10.444;2023-01-19T16:41:36;1.80;1.00
26621;DHT22;14253;44.840;10.444;2023-01-19T16:44:21;1.80;1.00
26621;DHT22;14253;44.840;10.444;2023-01-19T16:47:08;1.80;1.00
26621;DHT22;14253;44.840;10.444;2023-01-19T16:49:37;1.80;1.00
26621;DHT22;14253;44.840;10.444;2023-01-19T16:52:03;1.90;1.00
26621;DHT22;14253;44.840;10.444;2023-01-19T16:54:29;1.80;1.00
26621;DHT22;14253;44.840;10.444;2023-01-19T16:56:57;1.80;1.00
26621;DHT22;14253;44.840;10.444;2023-01-19T16:59:24;1.90;1.00
26621;DHT22;14253;44.840;10.444;2023-01-19T17:01:52;1.80;1.00
26621;DHT22;14253;44.840;10.444;2023-01-19T17:04:19;1.80;1.00
26621;DHT22;14253;44.840;10.444;2023-01-19T17:06:46;1.80;1.00
26621;DHT22;14253;44.840;10.444;2023-01-19T17:09:13;1.90;1.00
26621;DHT22;14253;44.840;10.444;2023-01-19T17:11:39;1.90;1.00
26621;DHT22;14253;44.840;10.444;2023-01-19T17:14:13;1.90;1.00